PDA

View Full Version : Jerricho's relatives, friends and acquaintances from all countries, unite!


Jerricho's boss
5th Apr 2005, 20:27
I was just wondering how many of us there were nowadays.

Please could non-members of that selected club refrain from posting on this thread (an exception could be made for Mr Jerricho himself, provided he does so from home)

Edited to add it's actually quite easy to find out : there are 14 of us (not counting Mr Churchill Polar Bear who seems to be still hibernating CYYQ 052000Z 32012KT 15SM SCT020 BKN083 M04/M06 A3018 RMK SC3AC1 SLP223, it's warming up)

Jerricho
5th Apr 2005, 20:33
:rolleyes:

Jerricho's Sheep
5th Apr 2005, 20:33
Dearest Jerricho....



Baaaaa-i-aaaaa-i-aaaaa wool always love ewe-ooooooo......

flapsforty
5th Apr 2005, 20:43
harassment: to trouble or disturb repeatedly or persistently.

bedevil , harry (1) , besiege (2) , hassle , beset (2) , badger, pursue , torment , pick on , nettle , nag , persecute , worry, irritate , trouble , vex , bait , taunt , pester , ride , bother , torment , nag , annoy , heckle , worry

Jerricho himself has never raised the matter with any of the Mods, but I feel that perhaps this has gone as far as it should.